createdAt,value
2023-04-06T00:01:16.672Z,5.64
2023-04-06T00:06:18.205Z,5.60
2023-04-06T00:11:19.740Z,5.54
2023-04-06T00:16:22.442Z,5.50
2023-04-06T00:21:26.877Z,5.47
2023-04-06T00:26:28.372Z,5.41
2023-04-06T00:31:29.935Z,5.43
2023-04-06T00:36:31.719Z,5.34
2023-04-06T00:41:33.246Z,5.34
2023-04-06T00:46:35.924Z,5.33
2023-04-06T00:51:37.539Z,5.35
2023-04-06T00:56:39.091Z,5.31
2023-04-06T01:01:40.874Z,5.32
2023-04-06T01:06:42.720Z,5.32
2023-04-06T01:11:44.630Z,5.34
2023-04-06T01:16:46.185Z,5.31
2023-04-06T01:21:47.920Z,5.36
2023-04-06T01:26:49.559Z,5.38
2023-04-06T01:31:51.431Z,5.36
2023-04-06T01:36:53.050Z,5.41
2023-04-06T01:41:54.518Z,5.46
2023-04-06T01:46:56.633Z,5.47
2023-04-06T01:51:58.241Z,5.50
2023-04-06T01:56:59.992Z,5.54
2023-04-06T02:02:01.509Z,5.54
2023-04-06T02:07:03.097Z,5.56
2023-04-06T02:12:04.668Z,5.63
2023-04-06T02:17:06.148Z,5.71
2023-04-06T02:22:07.786Z,5.71
2023-04-06T02:27:09.314Z,5.71
2023-04-06T02:32:10.927Z,5.70
2023-04-06T02:37:12.549Z,5.67
2023-04-06T02:42:16.151Z,5.72
2023-04-06T02:47:17.669Z,5.73
2023-04-06T02:52:19.299Z,5.71
2023-04-06T02:57:21.153Z,5.68
2023-04-06T03:02:22.803Z,5.70
2023-04-06T03:07:24.331Z,5.69
2023-04-06T03:12:25.838Z,5.68
2023-04-06T03:17:27.385Z,5.70
2023-04-06T03:22:30.072Z,5.68
2023-04-06T03:27:31.553Z,5.70
2023-04-06T03:32:33.106Z,5.73
2023-04-06T03:37:34.632Z,5.74
2023-04-06T03:42:36.109Z,5.72
2023-04-06T03:47:37.697Z,5.71
2023-04-06T03:52:39.235Z,5.67
2023-04-06T03:57:40.797Z,5.68
2023-04-06T04:02:42.343Z,5.69
2023-04-06T04:07:43.920Z,5.68
2023-04-06T04:12:45.444Z,5.73
2023-04-06T04:17:51.555Z,5.71
2023-04-06T04:22:53.135Z,5.69
2023-04-06T04:27:54.617Z,5.72
2023-04-06T04:32:56.196Z,5.74
2023-04-06T04:37:57.780Z,5.68
2023-04-06T04:42:59.313Z,5.64
2023-04-06T04:48:01.012Z,5.57
2023-04-06T04:53:02.620Z,5.56
2023-04-06T04:58:04.100Z,5.55
2023-04-06T05:03:06.500Z,5.53
2023-04-06T05:08:08.160Z,5.41
2023-04-06T05:13:09.858Z,5.34
2023-04-06T05:18:12.043Z,5.34
2023-04-06T05:23:13.929Z,5.38
2023-04-06T05:28:16.892Z,5.23
2023-04-06T05:33:18.456Z,5.09
2023-04-06T05:38:19.988Z,5.09
2023-04-06T05:43:23.173Z,5.21
2023-04-06T05:48:32.428Z,5.39
2023-04-06T05:53:33.929Z,5.44
2023-04-06T05:58:35.539Z,5.48
2023-04-06T06:03:38.205Z,5.65
2023-04-06T06:08:39.824Z,5.89
2023-04-06T06:13:41.343Z,6.00
2023-04-06T06:18:42.871Z,6.09
2023-04-06T06:23:44.396Z,6.00
2023-04-06T06:28:46.346Z,5.83
2023-04-06T06:33:51.226Z,5.93
2023-04-06T06:38:52.776Z,6.10
2023-04-06T06:43:54.350Z,6.23
2023-04-06T06:48:55.993Z,6.17
2023-04-06T06:53:57.607Z,6.09
2023-04-06T06:58:59.123Z,6.18
2023-04-06T07:04:00.796Z,6.35
2023-04-06T07:09:04.078Z,6.52
2023-04-06T07:14:05.976Z,6.68
2023-04-06T07:19:07.557Z,6.57
2023-04-06T07:24:09.356Z,6.57
2023-04-06T07:29:11.014Z,6.50
2023-04-06T07:34:12.496Z,6.57
2023-04-06T07:39:14.172Z,6.55
2023-04-06T07:44:16.053Z,6.58
2023-04-06T07:49:17.673Z,6.66
2023-04-06T07:54:19.140Z,6.61
2023-04-06T07:59:21.173Z,6.46
2023-04-06T08:04:22.851Z,6.46
2023-04-06T08:09:24.469Z,6.51
2023-04-06T08:14:25.978Z,6.66
2023-04-06T08:19:27.493Z,6.82
2023-04-06T08:24:29.027Z,6.88
2023-04-06T08:29:30.575Z,6.92
2023-04-06T08:34:33.979Z,7.06
2023-04-06T08:39:35.735Z,7.28
2023-04-06T08:44:38.819Z,7.42
2023-04-06T08:49:41.464Z,7.43
2023-04-06T08:54:43.030Z,7.41
2023-04-06T08:59:45.441Z,7.57
2023-04-06T09:04:49.802Z,7.86
2023-04-06T09:09:52.663Z,7.92
2023-04-06T09:14:55.359Z,7.96
2023-04-06T09:19:57.696Z,8.11
2023-04-06T09:24:59.170Z,8.29
2023-04-06T09:30:08.585Z,8.45
2023-04-06T09:35:10.470Z,8.49
2023-04-06T09:40:12.466Z,8.46
2023-04-06T09:45:14.551Z,8.69
2023-04-06T09:50:17.471Z,8.70
2023-04-06T09:55:25.658Z,8.90
2023-04-06T10:00:28.118Z,8.87
2023-04-06T10:05:43.522Z,8.80
2023-04-06T10:10:45.991Z,8.92
2023-04-06T10:15:47.900Z,8.95
2023-04-06T10:21:02.795Z,9.02
2023-04-06T10:26:04.729Z,8.97
2023-04-06T10:31:07.343Z,8.89
2023-04-06T10:36:16.454Z,8.72
2023-04-06T10:41:18.258Z,8.80
2023-04-06T10:46:29.724Z,9.13
2023-04-06T10:51:31.879Z,9.56
2023-04-06T10:56:35.446Z,9.47
2023-04-06T11:01:37.095Z,9.37
2023-04-06T11:06:39.332Z,9.34
2023-04-06T11:11:41.153Z,9.39
2023-04-06T11:16:42.749Z,9.47
2023-04-06T11:21:49.271Z,9.50
2023-04-06T11:26:57.263Z,9.52
2023-04-06T11:32:03.961Z,9.43
2023-04-06T11:37:10.718Z,9.40
2023-04-06T11:42:12.253Z,9.34
2023-04-06T11:47:13.815Z,9.14
2023-04-06T11:52:26.108Z,8.72
2023-04-06T11:57:28.966Z,8.41
2023-04-06T12:02:30.524Z,8.27
2023-04-06T12:07:32.463Z,8.38
2023-04-06T12:12:34.052Z,8.36
2023-04-06T12:17:35.789Z,8.42
2023-04-06T12:22:37.480Z,8.17
2023-04-06T12:27:39.017Z,8.15
2023-04-06T12:32:40.776Z,8.16
2023-04-06T12:37:43.104Z,8.38
2023-04-06T12:42:44.792Z,8.39
2023-04-06T12:47:46.329Z,7.64
2023-04-06T12:52:48.610Z,7.37
2023-04-06T12:57:50.892Z,7.34
2023-04-06T13:02:52.525Z,7.34
2023-04-06T13:07:54.181Z,7.29
2023-04-06T13:12:55.680Z,7.29
2023-04-06T13:17:57.236Z,7.21
2023-04-06T13:22:58.775Z,7.14
2023-04-06T13:28:00.398Z,7.10
2023-04-06T13:33:02.672Z,7.12
2023-04-06T13:38:04.234Z,7.11
2023-04-06T13:43:05.927Z,6.94
2023-04-06T13:48:07.632Z,6.88
2023-04-06T13:53:09.239Z,6.84
2023-04-06T13:58:10.928Z,6.80
2023-04-06T14:03:12.552Z,6.73
2023-04-06T14:08:14.428Z,6.66
2023-04-06T14:13:16.482Z,6.63
2023-04-06T14:18:17.960Z,6.61
2023-04-06T14:23:19.439Z,6.65
2023-04-06T14:28:23.097Z,6.55
2023-04-06T14:33:24.652Z,6.32
2023-04-06T14:38:26.138Z,6.32
2023-04-06T14:43:27.729Z,6.37
2023-04-06T14:48:29.491Z,6.47
2023-04-06T14:53:32.763Z,6.48
2023-04-06T14:58:34.397Z,6.34
2023-04-06T15:03:36.121Z,6.30
2023-04-06T15:08:37.729Z,6.27
2023-04-06T15:13:40.919Z,6.33
2023-04-06T15:18:42.475Z,6.22
2023-04-06T15:23:46.921Z,6.24
2023-04-06T15:28:48.747Z,6.15
2023-04-06T15:33:50.572Z,6.23
2023-04-06T15:38:53.891Z,6.40
2023-04-06T15:43:55.863Z,6.52
2023-04-06T15:48:57.479Z,6.43
2023-04-06T15:53:59.024Z,6.33
2023-04-06T15:59:00.698Z,6.32
2023-04-06T16:04:02.579Z,6.32
2023-04-06T16:09:04.160Z,6.50
2023-04-06T16:14:05.634Z,6.48
2023-04-06T16:19:07.160Z,6.33
2023-04-06T16:24:08.691Z,6.28
2023-04-06T16:29:10.784Z,6.37
2023-04-06T16:34:12.470Z,6.42
2023-04-06T16:39:13.986Z,6.40
2023-04-06T16:44:15.763Z,6.38
2023-04-06T16:49:19.441Z,6.33
2023-04-06T16:54:21.028Z,6.45
2023-04-06T16:59:22.550Z,6.76
2023-04-06T17:04:24.219Z,6.84
2023-04-06T17:09:25.881Z,6.92
2023-04-06T17:14:28.953Z,6.97
2023-04-06T17:19:32.420Z,6.93
2023-04-06T17:24:33.938Z,6.95
2023-04-06T17:29:36.683Z,6.86
2023-04-06T17:34:38.353Z,6.88
2023-04-06T17:39:39.930Z,6.88
2023-04-06T17:44:41.671Z,6.84
2023-04-06T17:49:43.400Z,6.87
2023-04-06T17:54:45.373Z,6.82
2023-04-06T17:59:47.123Z,6.86
2023-04-06T18:04:55.307Z,6.88
2023-04-06T18:09:57.011Z,6.91
2023-04-06T18:14:58.573Z,6.94
2023-04-06T18:20:00.361Z,7.00
2023-04-06T18:25:02.084Z,6.92
2023-04-06T18:30:04.592Z,7.01
2023-04-06T18:35:09.136Z,7.04
2023-04-06T18:40:31.252Z,7.10
2023-04-06T18:45:34.738Z,7.12
2023-04-06T18:50:36.662Z,7.12
2023-04-06T18:55:38.280Z,7.14
2023-04-06T19:00:41.809Z,7.15
2023-04-06T19:05:43.782Z,7.20
2023-04-06T19:10:45.593Z,7.17
2023-04-06T19:15:47.127Z,7.15
2023-04-06T19:20:48.606Z,7.14
2023-04-06T19:25:50.146Z,7.16
2023-04-06T19:30:52.085Z,7.14
2023-04-06T19:35:53.610Z,7.14
2023-04-06T19:40:55.194Z,7.20
2023-04-06T19:45:56.743Z,7.25
2023-04-06T19:50:58.279Z,7.27
2023-04-06T19:55:59.871Z,7.27
2023-04-06T20:01:02.276Z,7.31
2023-04-06T20:06:03.915Z,7.35
2023-04-06T20:11:07.552Z,7.40
2023-04-06T20:16:09.353Z,7.47
2023-04-06T20:21:10.905Z,7.50
2023-04-06T20:26:12.373Z,7.55
2023-04-06T20:31:13.925Z,7.61
2023-04-06T20:36:15.420Z,7.66
2023-04-06T20:41:16.915Z,7.70
2023-04-06T20:46:18.588Z,7.75
2023-04-06T20:51:23.682Z,7.79
2023-04-06T20:56:26.737Z,7.85
2023-04-06T21:01:29.687Z,7.85
2023-04-06T21:06:32.239Z,7.79
2023-04-06T21:11:33.841Z,7.85
2023-04-06T21:16:35.502Z,7.88
2023-04-06T21:21:36.954Z,7.87
2023-04-06T21:26:38.429Z,7.94
2023-04-06T21:31:41.788Z,7.95
2023-04-06T21:36:43.884Z,7.90
2023-04-06T21:41:45.364Z,7.88
2023-04-06T21:46:46.894Z,7.90
2023-04-06T21:51:48.477Z,7.81
2023-04-06T21:56:49.945Z,7.86
2023-04-06T22:01:51.519Z,7.85
2023-04-06T22:06:53.034Z,7.83
2023-04-06T22:11:54.545Z,7.80
2023-04-06T22:16:56.069Z,7.79
2023-04-06T22:21:57.589Z,7.78
2023-04-06T22:26:59.207Z,7.79
2023-04-06T22:32:00.900Z,7.69
2023-04-06T22:37:02.395Z,7.65
2023-04-06T22:42:05.738Z,7.60
2023-04-06T22:47:07.328Z,7.55
2023-04-06T22:52:08.940Z,7.54
2023-04-06T22:57:10.531Z,7.55
2023-04-06T23:02:12.152Z,7.55
2023-04-06T23:07:15.371Z,7.53
2023-04-06T23:12:17.000Z,7.55
2023-04-06T23:17:18.736Z,7.57
2023-04-06T23:22:20.415Z,7.50
2023-04-06T23:27:21.955Z,7.54
2023-04-06T23:32:23.521Z,7.54
2023-04-06T23:37:25.200Z,7.52
2023-04-06T23:42:29.097Z,7.52
2023-04-06T23:47:30.875Z,7.57
2023-04-06T23:52:32.474Z,7.58
2023-04-06T23:57:33.935Z,7.56
